createdAt,value
2018-12-02T00:00:27.698Z,1.70
2018-12-02T00:02:56.138Z,1.70
2018-12-02T00:05:25.420Z,1.70
2018-12-02T00:07:53.710Z,1.80
2018-12-02T00:10:22.841Z,1.80
2018-12-02T00:12:51.118Z,1.80
2018-12-02T00:15:27.346Z,1.80
2018-12-02T00:17:59.881Z,1.80
2018-12-02T00:20:28.171Z,1.90
2018-12-02T00:22:56.351Z,1.90
2018-12-02T00:25:24.644Z,1.90
2018-12-02T00:27:57.046Z,1.90
2018-12-02T00:30:26.758Z,1.90
2018-12-02T00:32:55.207Z,2.00
2018-12-02T00:35:23.450Z,1.90
2018-12-02T00:37:53.958Z,1.90
2018-12-02T00:40:22.849Z,1.90
2018-12-02T00:42:53.894Z,2.00
2018-12-02T00:45:32.228Z,2.00
2018-12-02T00:48:00.576Z,1.90
2018-12-02T00:50:28.795Z,1.90
2018-12-02T00:52:59.011Z,1.90
2018-12-02T00:55:42.546Z,1.90
2018-12-02T00:58:10.723Z,1.80
2018-12-02T01:00:38.954Z,1.80
2018-12-02T01:03:08.425Z,1.80
2018-12-02T01:05:36.699Z,1.80
2018-12-02T01:08:05.358Z,1.90
2018-12-02T01:10:33.552Z,2.00
2018-12-02T01:13:01.983Z,2.00
2018-12-02T01:15:31.628Z,2.20
2018-12-02T01:17:59.964Z,2.20
2018-12-02T01:20:28.271Z,2.30
2018-12-02T01:22:56.553Z,2.30
2018-12-02T01:25:25.053Z,2.30
2018-12-02T01:27:53.159Z,2.30
2018-12-02T01:30:22.620Z,2.30
2018-12-02T01:32:51.895Z,2.40
2018-12-02T01:35:20.132Z,2.40
2018-12-02T01:37:48.395Z,2.40
2018-12-02T01:40:18.462Z,2.50
2018-12-02T01:42:46.763Z,2.50
2018-12-02T01:45:19.152Z,2.60
2018-12-02T01:47:47.394Z,2.70
2018-12-02T01:50:19.451Z,2.80
2018-12-02T01:52:49.487Z,2.80
2018-12-02T01:55:17.798Z,2.80
2018-12-02T01:57:46.008Z,2.80
2018-12-02T02:00:15.398Z,2.80
2018-12-02T02:02:43.619Z,2.80
2018-12-02T02:05:11.880Z,2.80
2018-12-02T02:07:40.132Z,2.80
2018-12-02T02:10:13.131Z,2.80
2018-12-02T02:12:41.338Z,2.80
2018-12-02T02:15:10.907Z,2.80
2018-12-02T02:17:39.196Z,2.90
2018-12-02T02:20:11.335Z,2.90
2018-12-02T02:22:39.584Z,2.90
2018-12-02T02:25:09.405Z,2.80
2018-12-02T02:27:37.867Z,2.80
2018-12-02T02:30:12.689Z,2.80
2018-12-02T02:32:41.814Z,2.80
2018-12-02T02:35:10.357Z,2.80
2018-12-02T02:37:38.641Z,2.80
2018-12-02T02:40:18.524Z,2.80
2018-12-02T02:42:46.671Z,2.80
2018-12-02T02:45:15.547Z,2.80
2018-12-02T02:47:43.764Z,2.80
2018-12-02T02:50:15.933Z,2.80
2018-12-02T02:52:45.515Z,2.80
2018-12-02T02:55:13.654Z,2.80
2018-12-02T02:57:41.900Z,2.80
2018-12-02T03:00:11.883Z,2.90
2018-12-02T03:02:40.483Z,2.90
2018-12-02T03:05:09.991Z,2.90
2018-12-02T03:07:38.119Z,3.00
2018-12-02T03:10:11.605Z,3.00
2018-12-02T03:12:39.926Z,3.00
2018-12-02T03:15:10.707Z,3.10
2018-12-02T03:17:38.918Z,3.10
2018-12-02T03:20:22.606Z,3.10
2018-12-02T03:22:53.587Z,3.20
2018-12-02T03:25:22.801Z,3.20
2018-12-02T03:27:51.121Z,3.20
2018-12-02T03:30:20.377Z,3.30
2018-12-02T03:32:48.575Z,3.30
2018-12-02T03:35:21.490Z,3.30
2018-12-02T03:37:49.759Z,3.40
2018-12-02T03:40:19.231Z,3.40
2018-12-02T03:42:47.449Z,3.50
2018-12-02T03:45:16.987Z,3.50
2018-12-02T03:47:45.161Z,3.50
2018-12-02T03:50:17.613Z,3.50
2018-12-02T03:52:43.728Z,3.40
2018-12-02T03:55:11.996Z,3.40
2018-12-02T03:57:40.246Z,3.40
2018-12-02T04:00:14.766Z,3.30
2018-12-02T04:02:42.956Z,3.20
2018-12-02T04:05:12.295Z,3.20
2018-12-02T04:07:40.600Z,3.30
2018-12-02T04:10:13.986Z,3.30
2018-12-02T04:12:42.231Z,3.30
2018-12-02T04:15:14.412Z,3.30
2018-12-02T04:17:43.054Z,3.30
2018-12-02T04:20:13.939Z,3.30
2018-12-02T04:22:42.781Z,3.30
2018-12-02T04:25:15.002Z,3.30
2018-12-02T04:27:43.370Z,3.40
2018-12-02T04:30:12.703Z,3.40
2018-12-02T04:32:40.930Z,3.40
2018-12-02T04:35:10.211Z,3.40
2018-12-02T04:37:38.455Z,3.40
2018-12-02T04:40:08.416Z,3.50
2018-12-02T04:42:36.839Z,3.50
2018-12-02T04:45:06.783Z,3.50
2018-12-02T04:47:34.970Z,3.50
2018-12-02T04:50:03.670Z,3.50
2018-12-02T04:52:32.055Z,3.50
2018-12-02T04:55:00.406Z,3.50
2018-12-02T04:57:28.679Z,3.60
2018-12-02T04:59:56.839Z,3.50
2018-12-02T05:02:25.026Z,3.60
2018-12-02T05:04:53.201Z,3.50
2018-12-02T05:07:21.430Z,3.60
2018-12-02T05:09:49.634Z,3.50
2018-12-02T05:12:17.983Z,3.50
2018-12-02T05:14:46.390Z,3.50
2018-12-02T05:17:14.571Z,3.50
2018-12-02T05:19:42.762Z,3.40
2018-12-02T05:22:10.966Z,3.50
2018-12-02T05:24:39.106Z,3.50
2018-12-02T05:27:07.520Z,3.50
2018-12-02T05:29:35.677Z,3.60
2018-12-02T05:32:03.890Z,3.50
2018-12-02T05:34:32.122Z,3.50
2018-12-02T05:37:00.276Z,3.50
2018-12-02T05:39:28.475Z,3.40
2018-12-02T05:42:02.103Z,3.50
2018-12-02T05:44:30.407Z,3.50
2018-12-02T05:46:58.610Z,3.50
2018-12-02T05:49:26.847Z,3.40
2018-12-02T05:51:55.072Z,3.40
2018-12-02T05:54:23.235Z,3.40
2018-12-02T05:56:51.439Z,3.50
2018-12-02T05:59:19.556Z,3.50
2018-12-02T06:01:47.762Z,3.60
2018-12-02T06:04:15.936Z,3.50
2018-12-02T06:06:44.163Z,3.50
2018-12-02T06:09:12.471Z,3.50
2018-12-02T06:11:43.819Z,3.60
2018-12-02T06:14:09.102Z,3.60
2018-12-02T06:16:37.281Z,3.60
2018-12-02T06:19:05.623Z,3.60
2018-12-02T06:21:33.766Z,3.60
2018-12-02T06:24:02.073Z,3.60
2018-12-02T06:26:30.225Z,3.60
2018-12-02T06:28:58.503Z,3.70
2018-12-02T06:31:26.649Z,3.70
2018-12-02T06:33:54.902Z,3.70
2018-12-02T06:36:23.150Z,3.70
2018-12-02T06:38:51.315Z,3.70
2018-12-02T06:41:19.482Z,3.80
2018-12-02T06:43:47.838Z,3.80
2018-12-02T06:46:16.036Z,3.80
2018-12-02T06:48:44.331Z,3.80
2018-12-02T06:51:12.458Z,3.90
2018-12-02T06:53:40.961Z,3.90
2018-12-02T06:56:17.103Z,3.90
2018-12-02T06:59:54.182Z,3.90
2018-12-02T07:02:40.938Z,3.80
2018-12-02T07:05:10.882Z,3.80
2018-12-02T07:07:39.170Z,3.80
2018-12-02T07:10:07.547Z,3.80
2018-12-02T07:12:35.894Z,3.80
2018-12-02T07:15:04.211Z,3.70
2018-12-02T07:17:34.399Z,3.70
2018-12-02T07:20:05.882Z,3.70
2018-12-02T07:22:36.539Z,3.70
2018-12-02T07:25:07.461Z,3.70
2018-12-02T07:27:35.679Z,3.70
2018-12-02T07:30:04.645Z,3.60
2018-12-02T07:32:32.830Z,3.50
2018-12-02T07:35:01.115Z,3.50
2018-12-02T07:37:29.283Z,3.40
2018-12-02T07:40:19.178Z,3.40
2018-12-02T07:42:47.718Z,3.30
2018-12-02T07:45:15.894Z,3.20
2018-12-02T07:47:44.124Z,3.20
2018-12-02T07:50:12.246Z,3.20
2018-12-02T07:52:40.478Z,3.10
2018-12-02T07:55:09.386Z,3.10
2018-12-02T07:57:37.547Z,3.10
2018-12-02T08:00:10.528Z,3.10
2018-12-02T08:02:38.684Z,3.10
2018-12-02T08:05:09.178Z,3.00
2018-12-02T08:07:37.366Z,3.10
2018-12-02T08:10:09.255Z,3.00
2018-12-02T08:12:37.595Z,3.00
2018-12-02T08:15:09.587Z,2.90
2018-12-02T08:17:38.028Z,2.90
2018-12-02T08:20:10.238Z,2.90
2018-12-02T08:22:38.765Z,2.90
2018-12-02T08:25:10.448Z,3.00
2018-12-02T08:27:38.647Z,3.10
2018-12-02T08:30:11.291Z,3.10
2018-12-02T08:32:39.533Z,3.20
2018-12-02T08:35:09.058Z,3.20
2018-12-02T08:37:37.384Z,3.20
2018-12-02T08:40:08.616Z,3.10
2018-12-02T08:42:36.817Z,3.10
2018-12-02T08:45:07.559Z,3.20
2018-12-02T08:47:37.112Z,3.20
2018-12-02T08:50:09.544Z,3.30
2018-12-02T08:52:37.706Z,3.30
2018-12-02T08:55:07.144Z,3.40
2018-12-02T08:57:35.310Z,3.40
2018-12-02T09:00:04.207Z,3.50
2018-12-02T09:02:32.326Z,3.50
2018-12-02T09:05:00.577Z,3.50
2018-12-02T09:07:28.795Z,3.60
2018-12-02T09:09:59.677Z,3.60
2018-12-02T09:12:25.374Z,3.60
2018-12-02T09:14:53.544Z,3.60
2018-12-02T09:17:21.940Z,3.50
2018-12-02T09:19:50.211Z,3.50
2018-12-02T09:22:18.407Z,3.50
2018-12-02T09:24:46.818Z,3.50
2018-12-02T09:27:15.020Z,3.50
2018-12-02T09:29:43.338Z,3.50
2018-12-02T09:32:11.549Z,3.50
2018-12-02T09:34:39.919Z,3.50
2018-12-02T09:37:08.401Z,3.60
2018-12-02T09:39:36.766Z,3.70
2018-12-02T09:42:05.230Z,3.60
2018-12-02T09:44:33.524Z,3.60
2018-12-02T09:47:01.952Z,3.60
2018-12-02T09:49:30.396Z,3.50
2018-12-02T09:51:58.710Z,3.40
2018-12-02T09:54:26.891Z,3.40
2018-12-02T09:56:55.084Z,3.40
2018-12-02T09:59:23.225Z,3.40
2018-12-02T10:01:51.426Z,3.40
2018-12-02T10:04:20.034Z,3.40
2018-12-02T10:06:48.246Z,3.40
2018-12-02T10:09:16.607Z,3.40
2018-12-02T10:11:44.881Z,3.40
2018-12-02T10:14:13.123Z,3.40
2018-12-02T10:16:41.372Z,3.40
2018-12-02T10:19:09.586Z,3.50
2018-12-02T10:21:38.004Z,3.40
2018-12-02T10:24:06.315Z,3.50
2018-12-02T10:26:34.530Z,3.50
2018-12-02T10:29:02.764Z,3.60
2018-12-02T10:31:30.966Z,3.70
2018-12-02T10:33:59.243Z,3.70
2018-12-02T10:36:28.413Z,3.80
2018-12-02T10:38:56.615Z,3.90
2018-12-02T10:41:24.904Z,3.90
2018-12-02T10:43:53.187Z,4.00
2018-12-02T10:46:21.463Z,4.10
2018-12-02T10:48:49.806Z,4.00
2018-12-02T10:51:18.020Z,4.10
2018-12-02T10:53:46.218Z,4.20
2018-12-02T10:56:14.506Z,4.20
2018-12-02T10:58:42.782Z,4.30
2018-12-02T11:01:17.192Z,4.30
2018-12-02T11:03:46.486Z,4.40
2018-12-02T11:06:14.761Z,4.40
2018-12-02T11:08:42.936Z,4.40
2018-12-02T11:11:15.743Z,4.40
2018-12-02T11:13:44.083Z,4.30
2018-12-02T11:16:12.356Z,4.30
2018-12-02T11:18:40.939Z,4.30
2018-12-02T11:21:09.632Z,4.20
2018-12-02T11:23:37.929Z,4.30
2018-12-02T11:26:06.192Z,4.20
2018-12-02T11:28:34.524Z,4.20
2018-12-02T11:31:02.686Z,4.10
2018-12-02T11:33:30.875Z,4.10
2018-12-02T11:38:39.120Z,3.90
2018-12-02T11:41:07.651Z,3.90
2018-12-02T11:43:35.823Z,3.80
2018-12-02T11:46:04.209Z,3.80
2018-12-02T11:48:32.370Z,3.70
2018-12-02T11:51:00.607Z,3.50
2018-12-02T11:53:28.879Z,3.50
2018-12-02T11:55:57.105Z,3.50
2018-12-02T11:58:25.287Z,3.40
2018-12-02T12:00:53.497Z,3.40
2018-12-02T12:03:21.683Z,3.30
2018-12-02T12:05:49.949Z,3.30
2018-12-02T12:08:18.105Z,3.30
2018-12-02T12:10:46.413Z,3.30
2018-12-02T12:13:14.646Z,3.40
2018-12-02T12:15:42.866Z,3.30
2018-12-02T12:18:11.090Z,3.30
2018-12-02T12:20:41.281Z,3.20
2018-12-02T12:23:13.339Z,3.20
2018-12-02T12:25:41.602Z,3.10
2018-12-02T12:28:09.884Z,3.10
2018-12-02T12:30:38.538Z,3.10
2018-12-02T12:33:08.632Z,3.20
2018-12-02T12:35:38.398Z,3.10
2018-12-02T12:38:07.051Z,3.10
2018-12-02T12:40:37.840Z,3.10
2018-12-02T12:43:22.937Z,3.10
2018-12-02T12:45:51.170Z,3.10
2018-12-02T12:48:19.569Z,3.20
2018-12-02T12:50:47.861Z,3.20
2018-12-02T12:53:16.098Z,3.20
2018-12-02T12:55:44.370Z,3.40
2018-12-02T12:58:13.750Z,3.40
2018-12-02T13:00:41.949Z,3.40
2018-12-02T13:03:10.108Z,3.50
2018-12-02T13:05:38.295Z,3.50
2018-12-02T13:08:07.960Z,3.50
2018-12-02T13:10:36.221Z,3.60
2018-12-02T13:13:04.829Z,3.50
2018-12-02T13:15:33.077Z,3.50
2018-12-02T13:18:02.256Z,3.60
2018-12-02T13:20:32.054Z,3.60
2018-12-02T13:23:00.384Z,3.60
2018-12-02T13:25:28.697Z,3.60
2018-12-02T13:27:57.002Z,3.70
2018-12-02T13:30:25.203Z,3.70
2018-12-02T13:32:54.500Z,3.80
2018-12-02T13:35:23.365Z,3.80
2018-12-02T13:37:51.817Z,3.90
2018-12-02T13:40:21.951Z,3.90
2018-12-02T13:42:59.401Z,4.00
2018-12-02T13:45:28.850Z,4.10
2018-12-02T13:47:58.145Z,4.20
2018-12-02T13:50:26.364Z,4.20
2018-12-02T13:52:56.310Z,4.30
2018-12-02T13:55:26.709Z,4.30
2018-12-02T13:57:55.034Z,4.20
2018-12-02T14:00:25.062Z,4.20
2018-12-02T14:02:55.636Z,4.20
2018-12-02T14:05:23.879Z,4.20
2018-12-02T14:07:52.404Z,4.20
2018-12-02T14:10:20.642Z,4.10
2018-12-02T14:12:51.396Z,4.10
2018-12-02T14:15:49.048Z,4.20
2018-12-02T14:18:28.977Z,4.10
2018-12-02T14:20:57.449Z,4.10
2018-12-02T14:23:25.645Z,4.10
2018-12-02T14:25:55.156Z,4.10
2018-12-02T14:28:45.793Z,4.10
2018-12-02T14:31:14.257Z,4.10
2018-12-02T14:33:42.518Z,4.10
2018-12-02T14:36:10.762Z,4.10
2018-12-02T14:38:40.307Z,4.10
2018-12-02T14:41:07.589Z,4.10
2018-12-02T14:43:36.047Z,4.10
2018-12-02T14:46:04.399Z,4.10
2018-12-02T14:48:32.900Z,4.10
2018-12-02T14:51:01.211Z,4.20
2018-12-02T14:53:29.507Z,4.20
2018-12-02T14:55:57.889Z,4.20
2018-12-02T14:58:26.186Z,4.20
2018-12-02T15:00:54.354Z,4.30
2018-12-02T15:03:22.533Z,4.30
2018-12-02T15:05:51.320Z,4.30
2018-12-02T15:08:19.507Z,4.20
2018-12-02T15:10:47.766Z,4.30
2018-12-02T15:13:16.121Z,4.20
2018-12-02T15:15:44.379Z,4.30
2018-12-02T15:18:12.666Z,4.30
2018-12-02T15:20:40.906Z,4.30
2018-12-02T15:23:09.492Z,4.30
2018-12-02T15:25:38.584Z,4.30
2018-12-02T15:28:07.021Z,4.20
2018-12-02T15:30:35.591Z,4.10
2018-12-02T15:33:03.792Z,4.00
2018-12-02T15:35:32.514Z,3.90
2018-12-02T15:38:00.971Z,3.90
2018-12-02T15:40:29.418Z,3.80
2018-12-02T15:42:57.881Z,3.80
2018-12-02T15:45:26.142Z,3.80
2018-12-02T15:47:54.558Z,3.90
2018-12-02T15:50:23.742Z,3.80
2018-12-02T15:52:52.393Z,3.80
2018-12-02T15:55:30.341Z,3.80
2018-12-02T15:57:59.587Z,3.80
2018-12-02T16:00:29.430Z,3.80
2018-12-02T16:02:57.717Z,3.80
2018-12-02T16:05:32.482Z,3.80
2018-12-02T16:08:01.109Z,3.80
2018-12-02T16:10:29.432Z,3.90
2018-12-02T16:12:57.744Z,3.80
2018-12-02T16:15:31.559Z,3.80
2018-12-02T16:17:59.815Z,3.80
2018-12-02T16:20:38.732Z,3.80
2018-12-02T16:23:07.844Z,3.80
2018-12-02T16:25:36.930Z,3.80
2018-12-02T16:28:05.223Z,3.80
2018-12-02T16:30:33.782Z,3.80
2018-12-02T16:33:02.068Z,3.80
2018-12-02T16:35:30.343Z,3.80
2018-12-02T16:37:58.715Z,3.80
2018-12-02T16:40:27.027Z,3.80
2018-12-02T16:42:56.452Z,3.80
2018-12-02T16:45:24.706Z,3.70
2018-12-02T16:47:54.263Z,3.70
2018-12-02T16:50:31.994Z,3.80
2018-12-02T16:53:01.913Z,3.80
2018-12-02T16:55:31.721Z,3.80
2018-12-02T16:58:09.287Z,3.80
2018-12-02T17:00:45.382Z,3.80
2018-12-02T17:03:13.625Z,3.80
2018-12-02T17:05:41.963Z,3.80
2018-12-02T17:08:10.244Z,3.90
2018-12-02T17:10:38.517Z,3.90
2018-12-02T17:13:06.832Z,3.90
2018-12-02T17:15:35.131Z,3.90
2018-12-02T17:18:03.347Z,3.90
2018-12-02T17:20:31.636Z,3.90
2018-12-02T17:22:59.951Z,3.90
2018-12-02T17:25:28.155Z,3.90
2018-12-02T17:27:56.542Z,3.90
2018-12-02T17:30:32.531Z,3.90
2018-12-02T17:33:00.889Z,4.00
2018-12-02T17:35:29.124Z,3.90
2018-12-02T17:37:57.396Z,3.90
2018-12-02T17:40:25.637Z,3.90
2018-12-02T17:42:53.919Z,4.00
2018-12-02T17:45:22.123Z,4.00
2018-12-02T17:47:50.310Z,4.00
2018-12-02T17:50:19.136Z,4.00
2018-12-02T17:52:48.723Z,4.00
2018-12-02T17:55:16.827Z,4.00
2018-12-02T17:57:45.159Z,4.00
2018-12-02T18:00:24.110Z,4.10
2018-12-02T18:02:55.659Z,4.10
2018-12-02T18:05:27.056Z,4.10
2018-12-02T18:07:55.420Z,4.20
2018-12-02T18:10:25.055Z,4.20
2018-12-02T18:12:53.276Z,4.20
2018-12-02T18:15:21.572Z,4.20
2018-12-02T18:17:49.807Z,4.20
2018-12-02T18:20:18.610Z,4.20
2018-12-02T18:22:46.990Z,4.30
2018-12-02T18:25:16.323Z,4.30
2018-12-02T18:27:46.501Z,4.30
2018-12-02T18:30:23.942Z,4.30
2018-12-02T18:33:00.186Z,4.30
2018-12-02T18:35:36.211Z,4.30
2018-12-02T18:38:07.318Z,4.40
2018-12-02T18:40:35.944Z,4.40
2018-12-02T18:43:04.496Z,4.40
2018-12-02T18:45:33.037Z,4.40
2018-12-02T18:48:01.371Z,4.40
2018-12-02T18:50:29.552Z,4.40
2018-12-02T18:52:57.951Z,4.40
2018-12-02T18:55:26.067Z,4.50
2018-12-02T18:57:54.455Z,4.50
2018-12-02T19:00:28.137Z,4.50
2018-12-02T19:02:57.286Z,4.50
2018-12-02T19:05:25.499Z,4.50
2018-12-02T19:07:53.811Z,4.70
2018-12-02T19:10:23.742Z,4.70
2018-12-02T19:12:52.326Z,5.00
2018-12-02T19:15:20.687Z,4.80
2018-12-02T19:17:49.193Z,4.70
2018-12-02T19:20:23.122Z,4.70
2018-12-02T19:22:52.996Z,4.70
2018-12-02T19:25:22.991Z,4.70
2018-12-02T19:27:51.243Z,4.70
2018-12-02T19:30:19.672Z,4.70
2018-12-02T19:32:48.039Z,4.70
2018-12-02T19:35:33.498Z,4.70
2018-12-02T19:38:16.413Z,4.70
2018-12-02T19:40:44.791Z,4.70
2018-12-02T19:43:13.286Z,4.70
2018-12-02T19:45:41.902Z,4.70
2018-12-02T19:48:10.360Z,4.70
2018-12-02T19:50:39.948Z,4.70
2018-12-02T19:53:08.612Z,4.70
2018-12-02T19:55:37.232Z,4.70
2018-12-02T19:58:08.274Z,4.60
2018-12-02T20:00:43.639Z,4.70
2018-12-02T20:03:13.272Z,4.70
2018-12-02T20:05:42.119Z,4.70
2018-12-02T20:08:11.705Z,4.80
2018-12-02T20:10:41.286Z,4.80
2018-12-02T20:13:11.060Z,4.70
2018-12-02T20:15:44.574Z,4.70
2018-12-02T20:18:13.174Z,4.70
2018-12-02T20:20:47.949Z,4.80
2018-12-02T20:23:21.443Z,4.80
2018-12-02T20:25:50.473Z,4.80
2018-12-02T20:28:18.772Z,4.90
2018-12-02T20:30:47.186Z,4.90
2018-12-02T20:33:15.591Z,4.90
2018-12-02T20:35:44.103Z,4.90
2018-12-02T20:38:12.399Z,4.90
2018-12-02T20:40:40.728Z,4.90
2018-12-02T20:43:09.578Z,4.90
2018-12-02T20:45:37.951Z,4.80
2018-12-02T20:48:06.118Z,4.80
2018-12-02T20:50:34.347Z,4.80
2018-12-02T20:53:02.527Z,4.80
2018-12-02T20:55:30.741Z,4.80
2018-12-02T20:58:01.306Z,4.80
2018-12-02T21:00:29.518Z,4.80
2018-12-02T21:03:15.567Z,4.80
2018-12-02T21:05:54.512Z,4.80
2018-12-02T21:08:22.657Z,4.70
2018-12-02T21:10:50.917Z,4.80
2018-12-02T21:13:19.142Z,4.80
2018-12-02T21:15:47.262Z,4.70
2018-12-02T21:18:15.651Z,4.70
2018-12-02T21:20:43.988Z,4.70
2018-12-02T21:23:12.162Z,4.70
2018-12-02T21:25:40.880Z,4.60
2018-12-02T21:28:10.772Z,4.60
2018-12-02T21:30:39.038Z,4.60
2018-12-02T21:33:07.450Z,4.60
2018-12-02T21:35:36.710Z,4.50
2018-12-02T21:38:05.499Z,4.50
2018-12-02T21:40:33.864Z,4.50
2018-12-02T21:43:02.237Z,4.50
2018-12-02T21:45:30.565Z,4.50
2018-12-02T21:47:58.787Z,4.50
2018-12-02T21:50:28.158Z,4.50
2018-12-02T21:52:57.319Z,4.50
2018-12-02T21:55:25.507Z,4.50
2018-12-02T21:57:53.722Z,4.40
2018-12-02T22:00:27.350Z,4.40
2018-12-02T22:02:55.868Z,4.40
2018-12-02T22:05:24.107Z,4.50
2018-12-02T22:07:52.729Z,4.50
2018-12-02T22:10:23.559Z,4.50
2018-12-02T22:12:52.094Z,4.50
2018-12-02T22:15:20.420Z,4.50
2018-12-02T22:17:48.737Z,4.50
2018-12-02T22:20:17.487Z,4.50
2018-12-02T22:22:45.818Z,4.50
2018-12-02T22:25:15.170Z,4.40
2018-12-02T22:27:44.684Z,4.50
2018-12-02T22:30:15.138Z,4.50
2018-12-02T22:32:43.350Z,4.50
2018-12-02T22:35:12.547Z,4.50
2018-12-02T22:37:40.853Z,4.50
2018-12-02T22:40:12.550Z,4.50
2018-12-02T22:42:40.793Z,4.40
2018-12-02T22:45:10.746Z,4.40
2018-12-02T22:47:39.216Z,4.40
2018-12-02T22:50:14.462Z,4.40
2018-12-02T22:52:42.962Z,4.30
2018-12-02T22:55:11.749Z,4.30
2018-12-02T22:57:39.995Z,4.30
2018-12-02T23:00:26.758Z,4.30
2018-12-02T23:03:00.359Z,4.20
2018-12-02T23:05:28.579Z,4.20
2018-12-02T23:07:56.830Z,4.30
2018-12-02T23:10:25.016Z,4.20
2018-12-02T23:12:54.465Z,4.20
2018-12-02T23:15:21.501Z,4.20
2018-12-02T23:17:49.703Z,4.10
2018-12-02T23:20:18.026Z,4.20
2018-12-02T23:22:46.227Z,4.10
2018-12-02T23:25:15.063Z,4.10
2018-12-02T23:27:43.365Z,4.10
2018-12-02T23:30:23.039Z,4.20
2018-12-02T23:32:51.187Z,4.20
2018-12-02T23:35:19.393Z,4.20
2018-12-02T23:37:47.625Z,4.20
2018-12-02T23:40:16.912Z,4.20
2018-12-02T23:42:45.261Z,4.20
2018-12-02T23:45:14.233Z,4.30
2018-12-02T23:47:42.407Z,4.30
2018-12-02T23:50:16.357Z,4.30
2018-12-02T23:52:44.755Z,4.40
2018-12-02T23:55:13.930Z,4.30
2018-12-02T23:57:42.253Z,4.30
